Main page
METAR-TAF:

METAR-TAF

Airports :

Fritzlar Air Base

Fritzlar, Germany

latitude: 51-07N, longitude: 009-17E, elevation: 172 m

Current weather observation

The report was made 35 minutes ago, at 16:20 UTC
Wind 1 kt from the North
Temperature 14°C
Humidity 88%
Pressure 1014 hPa
Visibility 10 km or more
Overcast at a height of 1400 ft

METAR: ETHF 231620Z 01001KT 9999 OVC014 14/12 Q1014 GRN

Time: 18:55 (16:55 UTC)

Forecast

The report was made 3 hours and 31 minutes ago, at 13:24 UTC
Forecast valid from 23 at 14 UTC to 23 at 23 UTC
Wind 3 kt from variable directions
Visibility: 8000 m
Overcast at a height of 1000 ft
Temporary
from 23 at 21 UTC to 23 at 23 UTC
Wind 2 kt from variable directions
Visibility: 1400 m
Overcast at a height of 600 ft
mist

TAF: ETHF 231324Z 2314/2323 VRB03KT 8000 NSW OVC010 TEMPO 2321/2323 VRB02KT 2000 BR OVC006 CANCEL 1400

Weather observations and forecasts of more than 4000 airports (METAR and TAF reports).

The available stations are represented by yellow and red dots on the map.

Hover mouse over dot to see the name of the station.

Then click to see weather observations and forecasts.

To change the map : click on the green buttons with a black cross to zoom in, on the green button with a dash to zoom out, or on the green arrows for adjacent maps.


METAR-TAF: